Time;durP1;ratioP1;P1;durP2;ratioP2;P2;SDS_P1;SDS_P2;PMS_P1;PMS_P2;Temp;Humidity;BMP_temperature;BMP_pressure;BME280_temperature;BME280_humidity;BME280_pressure;Samples;Min_cycle;Max_cycle;Signal;HPM_P1;HPM_P2
2024/02/05 00:03:52;;;;;;;20.38;18.25;;;;;;;;;;9875808;29;20390;-77
2024/02/05 00:08:45;;;;;;;22.83;18.33;;;;;;;;;;9872679;29;20043;-76
2024/02/05 00:13:37;;;;;;;21.50;15.70;;;;;;;;;;9875602;29;20078;-76
2024/02/05 00:18:29;;;;;;;23.65;17.75;;;;;;;;;;9864318;29;20701;-76
2024/02/05 00:23:21;;;;;;;22.90;18.60;;;;;;;;;;9873308;29;20051;-77
2024/02/05 00:28:13;;;;;;;25.42;21.08;;;;;;;;;;9873490;29;20110;-76
2024/02/05 00:33:08;;;;;;;26.00;19.67;;;;;;;;;;9874354;29;20051;-76
2024/02/05 00:38:00;;;;;;;19.65;16.58;;;;;;;;;;9874277;29;20119;-78
2024/02/05 00:42:52;;;;;;;19.88;15.45;;;;;;;;;;9873658;29;20130;-78
2024/02/05 00:47:44;;;;;;;19.30;14.88;;;;;;;;;;9866874;29;20400;-78
2024/02/05 00:52:36;;;;;;;19.13;15.25;;;;;;;;;;9873308;29;20182;-76
2024/02/05 00:57:30;;;;;;;24.27;18.73;;;;;;;;;;9870378;29;20047;-77
2024/02/05 01:02:23;;;;;;;25.05;17.48;;;;;;;;;;9860211;29;20138;-77
2024/02/05 01:07:15;;;;;;;25.08;22.02;;;;;;;;;;9867410;29;20055;-77
2024/02/05 01:12:08;;;;;;;36.25;29.50;;;;;;;;;;9867388;29;20048;-78
2024/02/05 01:17:00;;;;;;;44.58;31.92;;;;;;;;;;9859033;29;20055;-78
2024/02/05 01:21:52;;;;;;;28.80;23.17;;;;;;;;;;9864371;29;20070;-77
2024/02/05 01:26:44;;;;;;;26.98;22.88;;;;;;;;;;9866749;29;20463;-77
2024/02/05 01:31:36;;;;;;;25.25;19.05;;;;;;;;;;9865544;29;20805;-77
2024/02/05 01:36:28;;;;;;;30.52;24.83;;;;;;;;;;9866244;29;20047;-76
2024/02/05 01:41:21;;;;;;;37.03;28.23;;;;;;;;;;9847429;29;20056;-76
2024/02/05 01:46:18;;;;;;;23.35;17.52;;;;;;;;;;9869000;29;20774;-76
2024/02/05 01:51:15;;;;;;;21.60;16.27;;;;;;;;;;9851763;29;20205;-77
2024/02/05 01:56:09;;;;;;;27.58;20.48;;;;;;;;;;9851822;29;20339;-77
2024/02/05 02:01:01;;;;;;;28.02;19.17;;;;;;;;;;9851697;29;20475;-77
2024/02/05 02:05:55;;;;;;;21.05;17.25;;;;;;;;;;9867352;29;20126;-77
2024/02/05 02:10:47;;;;;;;20.95;18.70;;;;;;;;;;9866731;29;20373;-77
2024/02/05 02:15:39;;;;;;;26.50;20.50;;;;;;;;;;9844166;29;20621;-77
2024/02/05 02:20:45;;;;;;;26.20;19.52;;;;;;;;;;9864948;29;20047;-77
2024/02/05 02:25:40;;;;;;;27.92;19.88;;;;;;;;;;9865365;29;20515;-77
2024/02/05 02:30:33;;;;;;;25.10;19.35;;;;;;;;;;9865394;29;20039;-79
2024/02/05 02:35:36;;;;;;;25.35;20.30;;;;;;;;;;9847313;29;20467;-77
2024/02/05 02:40:30;;;;;;;27.20;20.52;;;;;;;;;;9854740;29;20471;-77
2024/02/05 02:45:22;;;;;;;26.70;18.73;;;;;;;;;;9833120;29;20059;-77
2024/02/05 02:50:14;;;;;;;21.15;18.02;;;;;;;;;;9852686;29;20527;-76
2024/02/05 02:55:07;;;;;;;28.88;21.10;;;;;;;;;;9864224;29;20134;-76
2024/02/05 02:59:59;;;;;;;25.77;18.75;;;;;;;;;;9864279;29;20470;-77
2024/02/05 03:04:54;;;;;;;27.95;21.05;;;;;;;;;;9864144;29;20056;-76
2024/02/05 03:09:46;;;;;;;25.83;19.42;;;;;;;;;;9863415;29;20110;-77
2024/02/05 03:14:38;;;;;;;24.83;20.05;;;;;;;;;;9861054;29;20054;-77
2024/02/05 03:19:30;;;;;;;31.23;24.27;;;;;;;;;;9856040;29;20146;-77
2024/02/05 03:24:22;;;;;;;23.73;18.80;;;;;;;;;;9862788;29;20383;-76
2024/02/05 03:29:14;;;;;;;24.95;20.25;;;;;;;;;;9863844;29;20420;-77
2024/02/05 03:34:06;;;;;;;22.80;15.57;;;;;;;;;;9864465;29;20052;-76
2024/02/05 03:38:58;;;;;;;20.38;14.43;;;;;;;;;;9862688;29;20146;-76
2024/02/05 03:43:50;;;;;;;20.48;16.10;;;;;;;;;;9862720;29;20507;-76
2024/02/05 03:48:53;;;;;;;21.42;16.60;;;;;;;;;;9856149;29;20048;-77
2024/02/05 03:53:45;;;;;;;19.60;15.18;;;;;;;;;;9862093;29;20328;-76
2024/02/05 03:58:37;;;;;;;18.45;15.63;;;;;;;;;;9862539;29;20086;-76
2024/02/05 04:03:29;;;;;;;22.35;14.40;;;;;;;;;;9862289;29;20115;-76
2024/02/05 04:08:21;;;;;;;43.90;16.77;;;;;;;;;;9863143;29;20080;-76
2024/02/05 04:13:13;;;;;;;21.98;15.23;;;;;;;;;;9862634;29;20441;-76
2024/02/05 04:18:05;;;;;;;17.92;13.93;;;;;;;;;;9854621;29;20118;-76
2024/02/05 04:22:57;;;;;;;24.10;15.40;;;;;;;;;;9861832;29;20055;-76
2024/02/05 04:27:49;;;;;;;21.15;14.38;;;;;;;;;;9862706;29;20040;-76
2024/02/05 04:32:41;;;;;;;23.40;16.45;;;;;;;;;;9863206;29;20068;-76
2024/02/05 04:37:33;;;;;;;19.05;13.90;;;;;;;;;;9869042;29;20562;-76
2024/02/05 04:42:25;;;;;;;18.70;14.30;;;;;;;;;;9869033;29;20130;-76
2024/02/05 04:47:17;;;;;;;24.40;17.33;;;;;;;;;;9860895;29;20052;-76
2024/02/05 04:52:09;;;;;;;25.20;17.75;;;;;;;;;;9869716;29;20100;-76
2024/02/05 04:57:01;;;;;;;25.88;17.70;;;;;;;;;;9866373;29;20058;-76
2024/02/05 05:01:52;;;;;;;24.27;16.80;;;;;;;;;;9866807;29;20044;-76
2024/02/05 05:06:44;;;;;;;25.13;17.50;;;;;;;;;;9867900;29;20044;-76
2024/02/05 05:11:36;;;;;;;22.77;17.23;;;;;;;;;;9867934;29;20048;-76
2024/02/05 05:16:30;;;;;;;27.58;16.92;;;;;;;;;;9858882;29;20142;-76
2024/02/05 05:21:22;;;;;;;26.70;18.23;;;;;;;;;;9859264;29;20044;-76
2024/02/05 05:26:23;;;;;;;22.52;18.60;;;;;;;;;;9861952;29;20104;-77
2024/02/05 05:31:18;;;;;;;24.88;19.40;;;;;;;;;;9866345;29;21528;-76
2024/02/05 05:36:10;;;;;;;25.20;20.85;;;;;;;;;;9866533;29;20056;-76
2024/02/05 05:41:03;;;;;;;28.42;21.38;;;;;;;;;;9852757;29;20074;-76
2024/02/05 05:45:55;;;;;;;35.28;25.65;;;;;;;;;;9858482;29;20063;-76
2024/02/05 05:50:48;;;;;;;43.65;33.60;;;;;;;;;;9865665;29;20056;-76
2024/02/05 05:55:41;;;;;;;58.22;38.88;;;;;;;;;;9865688;29;20078;-76
2024/02/05 06:00:33;;;;;;;50.45;38.10;;;;;;;;;;9857566;29;20040;-76
2024/02/05 06:05:25;;;;;;;49.15;36.88;;;;;;;;;;9865886;29;20075;-78
2024/02/05 06:10:18;;;;;;;57.80;46.88;;;;;;;;;;9866877;29;20151;-79
2024/02/05 06:15:12;;;;;;;49.13;38.03;;;;;;;;;;9861188;29;20535;-82
2024/02/05 06:20:05;;;;;;;51.90;40.05;;;;;;;;;;9862954;29;20106;-76
2024/02/05 06:24:58;;;;;;;53.63;41.42;;;;;;;;;;9864001;29;20056;-76
2024/02/05 06:29:50;;;;;;;49.38;38.17;;;;;;;;;;9864739;29;20501;-76
2024/02/05 06:34:44;;;;;;;62.47;49.03;;;;;;;;;;9864288;29;20040;-75
2024/02/05 06:39:36;;;;;;;93.88;67.55;;;;;;;;;;9862758;29;20494;-76
2024/02/05 06:44:28;;;;;;;61.97;45.10;;;;;;;;;;9863005;29;20049;-77
2024/02/05 06:49:22;;;;;;;97.90;68.07;;;;;;;;;;9854961;29;20067;-76
2024/02/05 06:54:14;;;;;;;79.65;55.38;;;;;;;;;;9863616;29;20128;-76
2024/02/05 06:59:06;;;;;;;56.08;40.10;;;;;;;;;;9863544;29;20135;-76
2024/02/05 07:03:57;;;;;;;103.78;66.28;;;;;;;;;;9856939;29;20541;-76
2024/02/05 07:08:49;;;;;;;93.55;63.08;;;;;;;;;;9863698;29;20050;-76
2024/02/05 07:13:41;;;;;;;87.68;67.90;;;;;;;;;;9863704;29;20051;-76
2024/02/05 07:18:33;;;;;;;69.47;54.90;;;;;;;;;;9855215;29;20066;-76
2024/02/05 07:23:25;;;;;;;57.90;43.13;;;;;;;;;;9862828;29;20526;-75
2024/02/05 07:28:17;;;;;;;39.63;32.25;;;;;;;;;;9864686;29;20138;-76
2024/02/05 07:33:09;;;;;;;57.15;44.95;;;;;;;;;;9849148;29;20056;-76
2024/02/05 07:38:01;;;;;;;70.57;53.63;;;;;;;;;;9862635;29;20055;-78
2024/02/05 07:42:53;;;;;;;64.82;51.25;;;;;;;;;;9852128;29;20359;-76
2024/02/05 07:47:45;;;;;;;55.60;48.60;;;;;;;;;;9854178;29;20043;-78
2024/02/05 07:52:38;;;;;;;49.13;39.45;;;;;;;;;;9852048;29;20483;-76
2024/02/05 07:57:29;;;;;;;49.38;34.65;;;;;;;;;;9866902;29;20052;-75
2024/02/05 08:02:22;;;;;;;62.50;38.05;;;;;;;;;;9862513;29;20126;-74
2024/02/05 08:07:14;;;;;;;50.63;36.28;;;;;;;;;;9857514;29;20079;-75
2024/02/05 08:12:07;;;;;;;50.38;36.05;;;;;;;;;;9848256;29;20198;-74
2024/02/05 08:16:59;;;;;;;50.35;37.25;;;;;;;;;;9862489;29;20058;-75
2024/02/05 08:21:51;;;;;;;49.67;39.38;;;;;;;;;;9864166;29;20139;-74
2024/02/05 08:26:43;;;;;;;48.50;39.17;;;;;;;;;;9860933;29;20866;-73
2024/02/05 08:31:36;;;;;;;48.05;38.08;;;;;;;;;;9867467;29;20115;-73
2024/02/05 08:36:27;;;;;;;47.58;37.15;;;;;;;;;;9868458;29;20047;-73
2024/02/05 08:41:19;;;;;;;51.55;40.40;;;;;;;;;;9865411;29;20051;-73
2024/02/05 08:46:12;;;;;;;47.50;36.40;;;;;;;;;;9859554;29;20051;-73
2024/02/05 08:51:04;;;;;;;47.33;37.85;;;;;;;;;;9866735;29;20066;-73
2024/02/05 08:55:57;;;;;;;50.25;38.15;;;;;;;;;;9864350;29;20487;-75
2024/02/05 09:00:50;;;;;;;61.53;42.22;;;;;;;;;;9865394;29;20048;-74
2024/02/05 09:05:47;;;;;;;58.08;39.03;;;;;;;;;;9864542;29;20075;-74
2024/02/05 09:10:39;;;;;;;47.80;35.08;;;;;;;;;;9861647;29;20062;-75
2024/02/05 09:15:31;;;;;;;44.92;36.42;;;;;;;;;;9908787;23;20107;-74
2024/02/05 09:20:24;;;;;;;48.72;35.10;;;;;;;;;;9909771;28;20055;-75
2024/02/05 09:25:16;;;;;;;47.40;36.38;;;;;;;;;;9907502;28;20107;-74
2024/02/05 09:30:11;;;;;;;46.63;35.17;;;;;;;;;;9908684;28;20074;-74
2024/02/05 09:35:03;;;;;;;45.33;35.38;;;;;;;;;;9908813;28;20043;-75
2024/02/05 09:39:55;;;;;;;47.20;37.10;;;;;;;;;;9912456;28;20051;-74
2024/02/05 09:44:49;;;;;;;68.40;35.95;;;;;;;;;;9906588;28;20365;-74
2024/02/05 09:49:41;;;;;;;45.63;36.53;;;;;;;;;;9908376;28;20039;-74
2024/02/05 09:54:39;;;;;;;48.28;36.78;;;;;;;;;;9907652;28;20047;-75
2024/02/05 09:59:31;;;;;;;44.50;33.08;;;;;;;;;;9891195;28;20145;-75
2024/02/05 10:04:23;;;;;;;44.83;32.22;;;;;;;;;;9907237;28;20119;-74
2024/02/05 10:09:16;;;;;;;42.42;31.40;;;;;;;;;;9892225;28;20496;-74
2024/02/05 10:14:08;;;;;;;40.90;32.20;;;;;;;;;;9895518;28;20048;-74
2024/02/05 10:19:04;;;;;;;40.97;32.10;;;;;;;;;;9911472;28;20062;-74
2024/02/05 10:23:57;;;;;;;43.67;32.35;;;;;;;;;;9906395;28;20137;-74
2024/02/05 10:28:49;;;;;;;50.97;37.35;;;;;;;;;;9919610;28;20043;-74
2024/02/05 10:33:41;;;;;;;48.45;35.50;;;;;;;;;;9906734;28;20386;-74
2024/02/05 10:38:38;;;;;;;43.60;34.45;;;;;;;;;;9906073;28;20129;-75
2024/02/05 10:43:30;;;;;;;43.25;34.25;;;;;;;;;;9896400;28;20043;-74
2024/02/05 10:48:26;;;;;;;49.97;35.67;;;;;;;;;;9907961;28;20049;-74
2024/02/05 10:53:18;;;;;;;49.67;35.53;;;;;;;;;;9915666;28;20043;-74
2024/02/05 10:58:13;;;;;;;51.00;35.15;;;;;;;;;;9908407;28;20054;-74
2024/02/05 11:03:09;;;;;;;45.67;34.03;;;;;;;;;;9905710;28;20526;-74
2024/02/05 11:08:05;;;;;;;;;;;;;;;;;;9904128;28;20047;-73
2024/02/05 11:13:04;;;;;;;44.53;33.25;;;;;;;;;;9889688;28;19922;-74
2024/02/05 11:17:58;;;;;;;45.63;34.60;;;;;;;;;;9906089;28;20051;-74
2024/02/05 11:22:50;;;;;;;40.95;32.90;;;;;;;;;;9902266;28;20051;-74
2024/02/05 11:27:43;;;;;;;44.58;31.70;;;;;;;;;;9911265;28;20105;-74
2024/02/05 11:32:35;;;;;;;52.35;34.47;;;;;;;;;;9904965;28;20110;-74
2024/02/05 11:37:27;;;;;;;45.75;31.10;;;;;;;;;;9913595;28;20043;-74
2024/02/05 11:42:20;;;;;;;43.72;33.60;;;;;;;;;;9904136;28;20054;-74
2024/02/05 11:47:12;;;;;;;42.03;32.83;;;;;;;;;;9916897;28;20047;-74
2024/02/05 11:52:04;;;;;;;42.85;33.88;;;;;;;;;;9894507;28;20386;-75
2024/02/05 11:56:57;;;;;;;45.50;34.67;;;;;;;;;;9890245;28;20051;-75
2024/02/05 12:01:49;;;;;;;44.78;31.48;;;;;;;;;;9903281;28;20062;-75
2024/02/05 12:06:44;;;;;;;41.72;33.40;;;;;;;;;;9890258;28;20051;-75
2024/02/05 12:11:37;;;;;;;43.83;32.83;;;;;;;;;;9894817;28;20051;-75
2024/02/05 12:16:30;;;;;;;42.75;32.78;;;;;;;;;;9911127;28;20095;-75
2024/02/05 12:21:24;;;;;;;45.92;34.55;;;;;;;;;;9903409;28;20070;-75
2024/02/05 12:26:15;;;;;;;39.67;32.65;;;;;;;;;;9889925;28;20058;-75
2024/02/05 12:31:07;;;;;;;42.00;33.30;;;;;;;;;;9904643;28;20138;-75
2024/02/05 12:36:04;;;;;;;41.67;33.58;;;;;;;;;;9903418;28;20508;-75
2024/02/05 12:40:57;;;;;;;41.78;33.60;;;;;;;;;;9904291;28;20051;-75
2024/02/05 12:45:49;;;;;;;45.05;32.78;;;;;;;;;;9902958;28;20422;-75
2024/02/05 12:50:41;;;;;;;41.08;31.58;;;;;;;;;;9904072;28;20054;-75
2024/02/05 12:55:33;;;;;;;45.15;36.35;;;;;;;;;;9906879;28;20074;-73
2024/02/05 13:00:26;;;;;;;42.03;33.17;;;;;;;;;;9913862;28;20051;-74
2024/02/05 13:05:18;;;;;;;39.50;32.00;;;;;;;;;;9910793;28;20043;-72
2024/02/05 13:10:10;;;;;;;39.97;32.45;;;;;;;;;;9912933;28;20070;-73
2024/02/05 13:15:04;;;;;;;44.63;35.65;;;;;;;;;;9911710;28;20043;-73
2024/02/05 13:19:56;;;;;;;49.60;35.63;;;;;;;;;;9892658;28;20046;-73
2024/02/05 13:24:48;;;;;;;42.55;35.30;;;;;;;;;;9909592;28;20050;-72
2024/02/05 13:29:40;;;;;;;41.60;33.25;;;;;;;;;;9908454;28;20053;-73
2024/02/05 13:34:33;;;;;;;46.15;32.95;;;;;;;;;;9912186;28;20365;-73
2024/02/05 13:39:26;;;;;;;39.03;30.70;;;;;;;;;;9917819;28;20055;-73
2024/02/05 13:44:20;;;;;;;44.92;32.03;;;;;;;;;;9911891;28;20047;-73
2024/02/05 13:49:12;;;;;;;44.72;31.92;;;;;;;;;;9921028;28;20043;-73
2024/02/05 13:54:04;;;;;;;39.55;32.15;;;;;;;;;;9923359;28;20062;-73
2024/02/05 13:58:56;;;;;;;44.78;33.70;;;;;;;;;;9924687;28;20046;-73
2024/02/05 14:03:49;;;;;;;40.20;32.13;;;;;;;;;;9911992;28;20049;-73
2024/02/05 14:08:44;;;;;;;37.25;29.30;;;;;;;;;;9915581;28;20047;-73
2024/02/05 14:13:36;;;;;;;40.88;33.22;;;;;;;;;;9919180;28;20513;-73
2024/02/05 14:18:28;;;;;;;39.88;30.90;;;;;;;;;;9909727;28;20454;-73
2024/02/05 14:23:20;;;;;;;37.38;31.58;;;;;;;;;;9913041;28;20066;-73
2024/02/05 14:28:12;;;;;;;41.85;32.45;;;;;;;;;;9914166;28;20154;-72
2024/02/05 14:33:04;;;;;;;37.45;29.80;;;;;;;;;;9915848;28;20047;-73
2024/02/05 14:37:56;;;;;;;40.55;31.83;;;;;;;;;;9912572;28;20051;-72
2024/02/05 14:42:49;;;;;;;36.30;30.02;;;;;;;;;;9923153;28;20137;-72
2024/02/05 14:47:41;;;;;;;37.13;29.40;;;;;;;;;;9907746;28;20043;-73
2024/02/05 14:52:33;;;;;;;33.20;29.02;;;;;;;;;;9921706;28;20462;-72
2024/02/05 14:57:25;;;;;;;37.55;29.67;;;;;;;;;;9921273;28;20113;-72
2024/02/05 15:02:17;;;;;;;38.10;30.80;;;;;;;;;;9921233;28;20047;-72
2024/02/05 15:07:08;;;;;;;43.08;31.88;;;;;;;;;;9914871;28;20085;-72
2024/02/05 15:12:02;;;;;;;38.92;31.20;;;;;;;;;;9909524;28;20054;-73
2024/02/05 15:16:54;;;;;;;43.17;29.52;;;;;;;;;;9918857;28;20204;-72
2024/02/05 15:21:47;;;;;;;40.75;30.58;;;;;;;;;;9920002;28;20051;-72
2024/02/05 15:26:45;;;;;;;39.88;29.65;;;;;;;;;;9917733;28;20380;-72
2024/02/05 15:31:38;;;;;;;33.97;28.30;;;;;;;;;;9916156;28;20061;-72
2024/02/05 15:36:30;;;;;;;46.17;30.88;;;;;;;;;;9929581;28;20046;-72
2024/02/05 15:41:23;;;;;;;43.63;31.38;;;;;;;;;;9922529;28;20556;-72
2024/02/05 15:46:15;;;;;;;35.88;29.77;;;;;;;;;;9920787;28;20426;-72
2024/02/05 15:51:07;;;;;;;46.95;32.88;;;;;;;;;;9922006;28;20382;-72
2024/02/05 15:55:59;;;;;;;41.80;32.65;;;;;;;;;;9910228;28;20043;-72
2024/02/05 16:00:51;;;;;;;46.90;32.83;;;;;;;;;;9908506;28;20501;-72
2024/02/05 16:05:43;;;;;;;46.72;33.13;;;;;;;;;;9916773;28;20059;-72
2024/02/05 16:10:37;;;;;;;49.13;38.55;;;;;;;;;;9915452;28;20469;-72
2024/02/05 16:15:29;;;;;;;48.17;39.30;;;;;;;;;;9923976;28;20051;-72
2024/02/05 16:20:21;;;;;;;58.30;44.22;;;;;;;;;;9911167;28;20082;-72
2024/02/05 16:25:13;;;;;;;40.30;34.45;;;;;;;;;;9919732;28;20046;-72
2024/02/05 16:30:06;;;;;;;44.55;35.67;;;;;;;;;;9923591;28;20058;-72
2024/02/05 16:34:58;;;;;;;60.63;45.60;;;;;;;;;;9926371;28;20110;-72
2024/02/05 16:39:49;;;;;;;48.97;37.78;;;;;;;;;;9920657;28;20083;-72
2024/02/05 16:44:41;;;;;;;45.20;34.28;;;;;;;;;;9919255;28;20051;-72
2024/02/05 16:49:33;;;;;;;43.85;35.88;;;;;;;;;;9918104;28;20047;-72
2024/02/05 16:54:28;;;;;;;96.00;70.30;;;;;;;;;;9921204;28;20469;-72
2024/02/05 16:59:20;;;;;;;100.25;63.17;;;;;;;;;;9928521;28;20553;-73
2024/02/05 17:04:12;;;;;;;101.40;68.93;;;;;;;;;;9928578;28;20050;-73
2024/02/05 17:09:04;;;;;;;89.70;60.13;;;;;;;;;;9913839;28;20075;-73
2024/02/05 17:13:56;;;;;;;199.60;142.70;;;;;;;;;;9908425;28;20117;-73
2024/02/05 17:18:48;;;;;;;66.82;48.10;;;;;;;;;;9910689;28;20150;-73
2024/02/05 17:23:40;;;;;;;62.90;49.55;;;;;;;;;;9909086;28;20051;-73
2024/02/05 17:28:32;;;;;;;58.58;39.65;;;;;;;;;;9905641;28;20647;-73
2024/02/05 17:33:24;;;;;;;67.85;45.38;;;;;;;;;;9907712;28;20046;-73
2024/02/05 17:38:16;;;;;;;61.88;45.90;;;;;;;;;;9919237;28;20066;-73
2024/02/05 17:43:10;;;;;;;62.88;45.70;;;;;;;;;;9907951;28;20427;-73
2024/02/05 17:48:02;;;;;;;67.38;45.00;;;;;;;;;;9915240;28;20047;-73
2024/02/05 17:52:55;;;;;;;55.95;43.70;;;;;;;;;;9931976;28;20393;-73
2024/02/05 17:57:47;;;;;;;59.72;45.63;;;;;;;;;;9941377;28;20477;-73
2024/02/05 18:02:40;;;;;;;64.15;50.42;;;;;;;;;;9929546;28;20074;-72
2024/02/05 18:07:32;;;;;;;86.00;54.25;;;;;;;;;;9935365;28;20047;-73
2024/02/05 18:12:24;;;;;;;76.47;50.92;;;;;;;;;;9937333;28;20074;-72
2024/02/05 18:17:16;;;;;;;72.82;53.65;;;;;;;;;;9934135;28;20051;-72
2024/02/05 18:22:08;;;;;;;72.57;53.35;;;;;;;;;;9938993;28;20047;-72
2024/02/05 18:27:00;;;;;;;89.68;61.03;;;;;;;;;;9927632;28;20043;-72
2024/02/05 18:31:52;;;;;;;147.13;100.35;;;;;;;;;;9927968;28;20415;-72
2024/02/05 18:36:44;;;;;;;111.05;84.95;;;;;;;;;;9920060;28;20067;-73
2024/02/05 18:41:36;;;;;;;82.68;63.70;;;;;;;;;;9931783;28;20050;-72
2024/02/05 18:46:28;;;;;;;82.28;62.50;;;;;;;;;;9943042;28;20050;-72
2024/02/05 18:51:20;;;;;;;91.53;62.75;;;;;;;;;;9942958;28;20034;-73
2024/02/05 18:56:12;;;;;;;88.93;66.47;;;;;;;;;;9942904;28;20044;-72
2024/02/05 19:01:04;;;;;;;79.60;58.60;;;;;;;;;;9930583;28;20062;-74
2024/02/05 19:05:56;;;;;;;90.30;63.47;;;;;;;;;;9910764;28;20427;-73
2024/02/05 19:10:48;;;;;;;87.25;62.25;;;;;;;;;;9906968;28;20047;-73
2024/02/05 19:15:39;;;;;;;93.38;65.95;;;;;;;;;;9906458;28;20051;-73
2024/02/05 19:20:31;;;;;;;120.78;89.97;;;;;;;;;;9904602;28;20597;-75
2024/02/05 19:25:23;;;;;;;90.88;59.58;;;;;;;;;;9907092;28;20484;-73
2024/02/05 19:30:18;;;;;;;79.60;54.20;;;;;;;;;;9914624;28;20043;-73
2024/02/05 19:35:10;;;;;;;89.47;59.20;;;;;;;;;;9913383;28;20031;-73
2024/02/05 19:40:03;;;;;;;75.72;57.17;;;;;;;;;;9904743;28;20059;-73
2024/02/05 19:44:55;;;;;;;78.32;54.63;;;;;;;;;;9909995;28;20090;-73
2024/02/05 19:49:47;;;;;;;72.60;49.67;;;;;;;;;;9907964;28;20465;-73
2024/02/05 19:54:39;;;;;;;77.00;57.15;;;;;;;;;;9905476;28;20561;-73
2024/02/05 19:59:31;;;;;;;81.75;57.97;;;;;;;;;;9904132;28;20134;-73
2024/02/05 20:04:23;;;;;;;66.82;52.13;;;;;;;;;;9912787;28;20043;-72
2024/02/05 20:09:15;;;;;;;75.22;52.22;;;;;;;;;;9912636;28;20375;-72
2024/02/05 20:14:07;;;;;;;79.63;53.55;;;;;;;;;;9914435;28;20093;-73
2024/02/05 20:18:58;;;;;;;72.55;53.65;;;;;;;;;;9912021;28;20059;-73
2024/02/05 20:23:51;;;;;;;74.97;56.90;;;;;;;;;;9916321;28;20771;-73
2024/02/05 20:28:42;;;;;;;81.45;57.53;;;;;;;;;;9917148;28;20042;-73
2024/02/05 20:33:35;;;;;;;82.20;59.95;;;;;;;;;;9932083;28;20053;-73
2024/02/05 20:38:28;;;;;;;83.70;58.17;;;;;;;;;;9927319;28;20097;-73
2024/02/05 20:43:20;;;;;;;96.53;64.85;;;;;;;;;;9945615;28;20053;-73
2024/02/05 20:48:12;;;;;;;85.97;65.10;;;;;;;;;;9933274;28;20061;-74
2024/02/05 20:53:04;;;;;;;84.57;58.95;;;;;;;;;;9922868;28;20466;-73
2024/02/05 20:57:56;;;;;;;90.28;63.17;;;;;;;;;;9940478;28;20046;-73
2024/02/05 21:02:48;;;;;;;82.50;58.85;;;;;;;;;;9943335;28;20524;-73
2024/02/05 21:07:40;;;;;;;94.38;59.20;;;;;;;;;;9930813;28;20377;-73
2024/02/05 21:12:33;;;;;;;84.40;60.80;;;;;;;;;;9939779;28;20043;-73
2024/02/05 21:17:24;;;;;;;80.00;57.03;;;;;;;;;;9940879;28;20082;-74
2024/02/05 21:22:16;;;;;;;74.38;54.22;;;;;;;;;;9941836;28;20413;-73
2024/02/05 21:27:09;;;;;;;66.75;50.97;;;;;;;;;;9944179;28;20055;-73
2024/02/05 21:32:01;;;;;;;70.25;53.45;;;;;;;;;;9939012;28;20047;-73
2024/02/05 21:36:53;;;;;;;72.78;51.72;;;;;;;;;;9936951;28;20105;-73
2024/02/05 21:41:45;;;;;;;77.57;51.55;;;;;;;;;;9945358;28;20039;-73
2024/02/05 21:46:37;;;;;;;60.75;46.42;;;;;;;;;;9944587;28;20083;-73
2024/02/05 21:51:29;;;;;;;64.22;48.47;;;;;;;;;;9940185;28;20058;-73
2024/02/05 21:56:21;;;;;;;67.20;45.00;;;;;;;;;;9947882;28;20470;-74
2024/02/05 22:01:12;;;;;;;62.58;46.28;;;;;;;;;;9948662;28;20082;-73
2024/02/05 22:06:05;;;;;;;65.97;47.35;;;;;;;;;;9924926;28;20470;-73
2024/02/05 22:10:57;;;;;;;60.15;44.13;;;;;;;;;;9944800;28;20055;-73
2024/02/05 22:15:49;;;;;;;65.93;45.92;;;;;;;;;;9941994;28;20085;-74
2024/02/05 22:20:41;;;;;;;65.57;48.35;;;;;;;;;;9942132;28;20157;-74
2024/02/05 22:25:33;;;;;;;69.18;51.95;;;;;;;;;;9947783;28;20417;-73
2024/02/05 22:30:26;;;;;;;63.30;48.25;;;;;;;;;;9941682;28;20481;-74
2024/02/05 22:35:18;;;;;;;66.72;49.05;;;;;;;;;;9947878;28;20098;-74
2024/02/05 22:40:11;;;;;;;57.90;45.85;;;;;;;;;;9944093;28;20054;-73
2024/02/05 22:45:03;;;;;;;64.63;45.30;;;;;;;;;;9947425;28;20458;-74
2024/02/05 22:49:55;;;;;;;69.38;47.78;;;;;;;;;;9939329;28;20046;-74
2024/02/05 22:54:47;;;;;;;61.03;45.75;;;;;;;;;;9947608;28;20138;-74
2024/02/05 22:59:39;;;;;;;76.32;56.47;;;;;;;;;;9937721;28;20043;-74
2024/02/05 23:04:31;;;;;;;73.38;52.40;;;;;;;;;;9946943;28;20053;-74
2024/02/05 23:09:26;;;;;;;62.53;49.22;;;;;;;;;;9940518;28;20355;-74
2024/02/05 23:14:17;;;;;;;71.18;50.75;;;;;;;;;;9946000;28;20421;-74
2024/02/05 23:19:10;;;;;;;69.15;52.15;;;;;;;;;;9943451;28;20109;-74
2024/02/05 23:24:02;;;;;;;72.70;54.15;;;;;;;;;;9942619;28;20050;-73
2024/02/05 23:28:54;;;;;;;80.20;58.08;;;;;;;;;;9930674;28;20422;-74
2024/02/05 23:33:46;;;;;;;78.05;58.53;;;;;;;;;;9933029;28;20046;-74
2024/02/05 23:38:38;;;;;;;75.60;54.35;;;;;;;;;;9943047;28;20047;-74
2024/02/05 23:43:30;;;;;;;78.05;53.20;;;;;;;;;;9946492;28;20043;-74
2024/02/05 23:48:23;;;;;;;71.28;52.08;;;;;;;;;;9939942;28;20047;-74
2024/02/05 23:53:15;;;;;;;71.60;52.67;;;;;;;;;;9945722;28;20102;-73
2024/02/05 23:58:07;;;;;;;68.00;49.63;;;;;;;;;;9942723;28;20504;-74
